Blackwell, OK

7:41 AM CST on February 07, 2016 (GMT -0600)
Blackwell

Weather History for KBKN - July, 2012

Change the Weather History Date:

Saturday, July 21, 2012

  Actual Average (KPNC) Record (KPNC)
Temperature  
Mean Temperature 86 °F -  
Max Temperature 104 °F 93 °F 108 °F (1974)
Min Temperature 68 °F 68 °F 52 °F (1970)
Cooling Degree Days 21    
Growing Degree Days 36 (Base 50)    
Moisture  
Dew Point 56 °F    
Average Humidity 41    
Maximum Humidity 73    
Minimum Humidity 16    
Precipitation  
Precipitation 0.00 in - - ()
Sea Level Pressure  
Sea Level Pressure 29.99 in    
Wind  
Wind Speed 7 mph (ENE)    
Max Wind Speed 15 mph    
Max Gust Speed 22 mph    
Visibility 10 miles    
Events      
Averages and records for this station are not official NWS values.
T = Trace of Precipitation, MM = Missing Value Source: NWS Daily Summary

Daily Weather History Graph

Daily Weather History Graph

Search for Another Location

Airport or City:

Trip Planner

Search our weather history database for the weather conditions in past years. The results will help you decide how hot, cold, wet, or windy it might be!

Date:

Astronomy

Jul. 21, 2012 Rise Set
Actual Time 6:26 AM CDT 8:44 PM CDT
Civil Twilight 5:57 AM CDT 9:13 PM CDT
Nautical Twilight 5:21 AM CDT 9:49 PM CDT
Astronomical Twilight 4:41 AM CDT 10:29 PM CDT
Moon 9:03 AM CDT (7/21) 10:03 PM CDT (7/21)
Length of Visible Light 15h 16m
Length of Day
14h 17m
Waxing Crescent, 7% of the Moon is Illuminated
Jul 21
Waxing Crescent
Jul 26
First Quarter
Aug 1
Full
Aug 9
Last Quarter
Aug 17
New

Hourly Weather History & Observations

Time (CDT) Temp. Heat Index Dew Point Humidity Pressure Visibility Wind Dir Wind Speed Gust Speed Precip Events Conditions
12:15 AM 77.0 °F - 59.0 °F 54% 29.99 in 10.0 mi ENE 4.6 mph - N/A   Clear
12:35 AM 77.0 °F - 59.0 °F 54% 29.99 in 10.0 mi ENE 4.6 mph - N/A   Clear
12:55 AM 75.2 °F - 59.0 °F 57% 29.99 in 10.0 mi ENE 6.9 mph - N/A   Clear
1:15 AM 77.0 °F - 59.0 °F 54% 29.99 in 10.0 mi ENE 6.9 mph - N/A   Clear
1:35 AM 75.2 °F - 57.2 °F 53% 30.00 in 10.0 mi ENE 6.9 mph - N/A   Clear
1:55 AM 73.4 °F - 57.2 °F 57% 30.00 in 10.0 mi ENE 6.9 mph - N/A   Clear
2:15 AM 73.4 °F - 57.2 °F 57% 30.00 in 10.0 mi NE 6.9 mph - N/A   Clear
2:35 AM 75.2 °F - 57.2 °F 53% 30.00 in 10.0 mi NE 8.1 mph - N/A   Clear
2:55 AM 73.4 °F - 57.2 °F 57% 30.01 in 10.0 mi NE 6.9 mph - N/A   Clear
3:15 AM 73.4 °F - 57.2 °F 57% 30.01 in 10.0 mi ENE 5.8 mph - N/A   Clear
3:35 AM 71.6 °F - 57.2 °F 60% 30.00 in 10.0 mi ENE 5.8 mph - N/A   Clear
3:55 AM 71.6 °F - 57.2 °F 60% 30.00 in 10.0 mi ENE 5.8 mph - N/A   Clear
4:15 AM 68.0 °F - 57.2 °F 68% 30.00 in 10.0 mi ENE 5.8 mph - N/A   Clear
4:35 AM 68.0 °F - 57.2 °F 68% 30.00 in 10.0 mi NE 3.5 mph - N/A   Clear
4:55 AM 68.0 °F - 57.2 °F 68% 30.01 in 10.0 mi NE 3.5 mph - N/A   Clear
5:15 AM 69.8 °F - 57.2 °F 64% 30.01 in 10.0 mi NNE 4.6 mph - N/A   Clear
5:35 AM 69.8 °F - 57.2 °F 64% 30.01 in 10.0 mi NNE 6.9 mph - N/A   Clear
5:55 AM 69.8 °F - 57.2 °F 64% 30.02 in 10.0 mi NNE 8.1 mph - N/A   Clear
6:15 AM 68.0 °F - 57.2 °F 68% 30.02 in 10.0 mi NNE 6.9 mph - N/A   Clear
6:35 AM 68.0 °F - 57.2 °F 68% 30.03 in 10.0 mi NNE 8.1 mph - N/A   Clear
6:55 AM 68.0 °F - 59.0 °F 73% 30.02 in 10.0 mi NNE 6.9 mph - N/A   Clear
7:15 AM 69.8 °F - 59.0 °F 68% 30.03 in 10.0 mi NNE 5.8 mph - N/A   Clear
7:35 AM 71.6 °F - 59.0 °F 64% 30.03 in 10.0 mi NNE 5.8 mph - N/A   Clear
7:55 AM 73.4 °F - 60.8 °F 65% 30.03 in 10.0 mi NE 6.9 mph - N/A   Clear
8:15 AM 75.2 °F - 62.6 °F 65% 30.03 in 10.0 mi ENE 8.1 mph - N/A   Clear
8:35 AM 77.0 °F - 62.6 °F 61% 30.03 in 10.0 mi ENE 6.9 mph - N/A   Clear
8:55 AM 80.6 °F 81.8 °F 62.6 °F 54% 30.03 in 10.0 mi East 10.4 mph 16.1 mph N/A   Clear
9:15 AM 82.4 °F 83.4 °F 62.6 °F 51% 30.03 in 10.0 mi East 9.2 mph - N/A   Clear
9:35 AM 84.2 °F 85.0 °F 62.6 °F 48% 30.03 in 10.0 mi ENE 6.9 mph - N/A   Clear
9:55 AM 86.0 °F 86.6 °F 62.6 °F 45% 30.03 in 10.0 mi East 6.9 mph - N/A   Clear
10:15 AM 87.8 °F 88.5 °F 62.6 °F 43% 30.03 in 10.0 mi East 6.9 mph - N/A   Clear
10:35 AM 89.6 °F 90.1 °F 62.6 °F 40% 30.03 in 10.0 mi East 9.2 mph - N/A   Clear
10:55 AM 91.4 °F 92.1 °F 62.6 °F 38% 30.03 in 9.0 mi East 11.5 mph - N/A   Clear
11:15 AM 93.2 °F 94.1 °F 62.6 °F 36% 30.03 in 10.0 mi East 12.7 mph - N/A   Clear
11:35 AM 95.0 °F 94.4 °F 59.0 °F 30% 30.03 in 10.0 mi ESE 6.9 mph - N/A   Clear
11:55 AM 95.0 °F 93.7 °F 57.2 °F 28% 30.03 in 10.0 mi East 12.7 mph 16.1 mph N/A   Clear
12:15 PM 95.0 °F 93.7 °F 57.2 °F 28% 30.02 in 10.0 mi East 5.8 mph - N/A   Clear
12:55 PM 96.8 °F 95.8 °F 57.2 °F 27% 30.01 in 10.0 mi East 8.1 mph 16.1 mph N/A   Clear
1:15 PM 98.6 °F 97.6 °F 57.2 °F 25% 30.01 in 10.0 mi East 10.4 mph 17.3 mph N/A   Clear
1:35 PM 98.6 °F 97.6 °F 57.2 °F 25% 30.01 in 10.0 mi East 13.8 mph 20.7 mph N/A   Clear
1:55 PM 100.4 °F 98.4 °F 53.6 °F 21% 30.00 in 10.0 mi East 10.4 mph 18.4 mph N/A   Clear
2:15 PM 100.4 °F - 51.8 °F 20% 29.99 in 10.0 mi East 13.8 mph 20.7 mph N/A   Clear
2:55 PM 102.2 °F 100.4 °F 53.6 °F 20% 29.98 in 10.0 mi ENE 15.0 mph 21.9 mph N/A   Clear
3:15 PM 102.2 °F - 50.0 °F 17% 29.98 in 10.0 mi ENE 13.8 mph 20.7 mph N/A   Clear
3:35 PM 102.2 °F - 50.0 °F 17% 29.98 in 10.0 mi ENE 12.7 mph 20.7 mph N/A   Clear
3:55 PM 104.0 °F - 50.0 °F 16% 29.97 in 10.0 mi ENE 10.4 mph 19.6 mph N/A   Clear
4:15 PM 104.0 °F - 50.0 °F 16% 29.97 in 10.0 mi ESE 11.5 mph 17.3 mph N/A   Clear
4:35 PM 104.0 °F - 50.0 °F 16% 29.96 in 10.0 mi ESE 12.7 mph 20.7 mph N/A   Clear
4:55 PM 104.0 °F 102.3 °F 53.6 °F 19% 29.96 in 10.0 mi ENE 11.5 mph - N/A   Clear
5:15 PM 102.2 °F - 50.0 °F 17% 29.95 in 10.0 mi East 6.9 mph 17.3 mph N/A   Clear
5:35 PM 102.2 °F - 51.8 °F 18% 29.95 in 10.0 mi East 12.7 mph 18.4 mph N/A   Clear
5:55 PM 102.2 °F - 50.0 °F 17% 29.94 in 10.0 mi East 12.7 mph - N/A   Clear
6:15 PM 102.2 °F - 50.0 °F 17% 29.94 in 10.0 mi ENE 11.5 mph - N/A   Clear
6:35 PM 102.2 °F - 50.0 °F 17% 29.93 in 10.0 mi East 11.5 mph 16.1 mph N/A   Clear
6:55 PM 102.2 °F - 50.0 °F 17% 29.93 in 10.0 mi East 11.5 mph - N/A   Clear
7:15 PM 100.4 °F - 50.0 °F 18% 29.94 in 10.0 mi ENE 8.1 mph - N/A   Clear
7:35 PM 100.4 °F - 50.0 °F 18% 29.94 in 10.0 mi East 9.2 mph - N/A   Clear
7:55 PM 98.6 °F - 50.0 °F 19% 29.94 in 10.0 mi East 5.8 mph - N/A   Clear
8:15 PM 95.0 °F - 50.0 °F 22% 29.94 in 10.0 mi East 5.8 mph - N/A   Clear
8:35 PM 91.4 °F - 50.0 °F 24% 29.94 in 10.0 mi East 4.6 mph - N/A   Clear
8:55 PM 89.6 °F - 50.0 °F 26% 29.95 in 10.0 mi ENE 5.8 mph - N/A   Clear
9:15 PM 87.8 °F 85.7 °F 53.6 °F 31% 29.95 in 10.0 mi ENE 4.6 mph - N/A   Clear
9:35 PM 86.0 °F 84.2 °F 53.6 °F 33% 29.95 in 10.0 mi NE 5.8 mph - N/A   Clear
9:55 PM 84.2 °F 82.8 °F 53.6 °F 35% 29.95 in 10.0 mi NE 6.9 mph - N/A   Clear